createdAt,value
2019-03-23T00:01:07.874Z,12.57
2019-03-23T00:03:36.269Z,15.13
2019-03-23T00:06:04.739Z,14.87
2019-03-23T00:08:33.146Z,13.17
2019-03-23T00:11:01.533Z,9.93
2019-03-23T00:13:29.997Z,12.03
2019-03-23T00:15:58.418Z,12.20
2019-03-23T00:18:26.814Z,13.07
2019-03-23T00:20:55.209Z,14.13
2019-03-23T00:23:23.630Z,12.87
2019-03-23T00:25:52.041Z,12.30
2019-03-23T00:28:20.431Z,14.73
2019-03-23T00:30:48.834Z,13.17
2019-03-23T00:33:17.248Z,12.23
2019-03-23T00:35:45.645Z,15.70
2019-03-23T00:38:14.083Z,11.30
2019-03-23T00:40:42.504Z,10.60
2019-03-23T00:43:10.893Z,12.13
2019-03-23T00:45:39.291Z,12.57
2019-03-23T00:48:07.702Z,11.37
2019-03-23T00:50:36.104Z,12.93
2019-03-23T00:53:04.597Z,10.77
2019-03-23T00:55:32.991Z,12.40
2019-03-23T00:58:01.387Z,14.20
2019-03-23T01:00:29.800Z,14.43
2019-03-23T01:02:58.190Z,14.73
2019-03-23T01:05:26.614Z,13.40
2019-03-23T01:07:55.005Z,16.90
2019-03-23T01:10:23.405Z,17.90
2019-03-23T01:12:51.821Z,15.60
2019-03-23T01:15:20.217Z,14.40
2019-03-23T01:17:48.608Z,12.03
2019-03-23T01:20:17.089Z,11.43
2019-03-23T01:22:45.480Z,13.90
2019-03-23T01:25:13.885Z,12.87
2019-03-23T01:27:42.294Z,14.73
2019-03-23T01:30:13.351Z,16.50
2019-03-23T01:32:41.748Z,14.20
2019-03-23T01:35:10.579Z,15.77
2019-03-23T01:37:38.999Z,13.60
2019-03-23T01:40:08.336Z,17.37
2019-03-23T01:42:36.817Z,14.83
2019-03-23T01:45:08.097Z,16.87
2019-03-23T01:47:36.492Z,12.80
2019-03-23T01:50:09.757Z,15.57
2019-03-23T01:52:38.154Z,15.43
2019-03-23T01:55:07.667Z,13.77
2019-03-23T01:57:36.058Z,12.73
2019-03-23T02:00:07.263Z,12.07
2019-03-23T02:02:35.854Z,17.27
2019-03-23T02:05:06.689Z,16.50
2019-03-23T02:07:35.199Z,16.77
2019-03-23T02:10:05.772Z,13.68
2019-03-23T02:12:34.165Z,16.33
2019-03-23T02:15:02.583Z,15.30
2019-03-23T02:17:30.978Z,15.37
2019-03-23T02:19:59.385Z,14.63
2019-03-23T02:22:28.085Z,16.13
2019-03-23T02:24:56.485Z,13.93
2019-03-23T02:27:24.901Z,17.20
2019-03-23T02:29:53.290Z,13.43
2019-03-23T02:32:21.685Z,16.47
2019-03-23T02:34:50.108Z,13.43
2019-03-23T02:37:27.762Z,12.87
2019-03-23T02:39:48.678Z,11.07
2019-03-23T02:42:17.076Z,12.83
2019-03-23T02:44:45.473Z,16.20
2019-03-23T02:47:13.879Z,13.57
2019-03-23T02:49:42.266Z,14.00
2019-03-23T02:52:10.659Z,12.37
2019-03-23T02:54:39.069Z,14.93
2019-03-23T02:57:07.471Z,16.50
2019-03-23T02:59:36.036Z,16.27
2019-03-23T03:02:04.501Z,14.70
2019-03-23T03:04:32.910Z,14.13
2019-03-23T03:07:01.490Z,13.33
2019-03-23T03:09:29.895Z,12.43
2019-03-23T03:11:58.304Z,15.00
2019-03-23T03:14:26.704Z,20.17
2019-03-23T03:16:55.135Z,17.87
2019-03-23T03:19:23.532Z,14.23
2019-03-23T03:21:51.937Z,17.00
2019-03-23T03:24:20.341Z,15.93
2019-03-23T03:26:48.746Z,20.77
2019-03-23T03:29:17.189Z,18.13
2019-03-23T03:31:45.561Z,14.03
2019-03-23T03:34:13.955Z,11.93
2019-03-23T03:36:42.382Z,12.27
2019-03-23T03:39:11.080Z,12.37
2019-03-23T03:41:39.502Z,11.17
2019-03-23T03:44:07.962Z,14.13
2019-03-23T03:46:36.436Z,15.93
2019-03-23T03:49:12.444Z,13.43
2019-03-23T03:51:35.055Z,15.97
2019-03-23T03:54:03.532Z,15.60
2019-03-23T03:56:31.925Z,15.50
2019-03-23T03:59:00.318Z,15.20
2019-03-23T04:01:28.743Z,15.05
2019-03-23T04:03:57.139Z,16.73
2019-03-23T04:06:25.566Z,17.27
2019-03-23T04:08:53.972Z,14.27
2019-03-23T04:11:22.388Z,14.47
2019-03-23T04:13:50.790Z,14.53
2019-03-23T04:16:19.197Z,18.05
2019-03-23T04:18:47.600Z,15.90
2019-03-23T04:21:15.992Z,13.60
2019-03-23T04:23:44.390Z,12.50
2019-03-23T04:26:12.795Z,18.65
2019-03-23T04:28:41.188Z,15.07
2019-03-23T04:31:09.618Z,15.33
2019-03-23T04:33:38.013Z,16.00
2019-03-23T04:36:06.400Z,13.93
2019-03-23T04:38:34.817Z,16.67
2019-03-23T04:41:03.218Z,15.90
2019-03-23T04:43:31.636Z,11.97
2019-03-23T04:46:00.033Z,13.23
2019-03-23T04:48:28.431Z,15.63
2019-03-23T04:50:56.850Z,16.17
2019-03-23T04:53:25.250Z,15.07
2019-03-23T04:55:53.677Z,16.50
2019-03-23T04:58:22.078Z,16.70
2019-03-23T05:00:50.474Z,17.90
2019-03-23T05:03:18.886Z,12.43
2019-03-23T05:05:47.286Z,12.17
2019-03-23T05:08:15.699Z,14.90
2019-03-23T05:10:44.089Z,13.93
2019-03-23T05:13:12.479Z,13.77
2019-03-23T05:15:40.896Z,14.47
2019-03-23T05:18:09.300Z,15.83
2019-03-23T05:20:37.720Z,13.60
2019-03-23T05:23:06.111Z,15.37
2019-03-23T05:25:34.517Z,17.40
2019-03-23T05:28:02.955Z,14.87
2019-03-23T05:30:31.340Z,13.20
2019-03-23T05:32:59.742Z,16.13
2019-03-23T05:35:28.174Z,17.77
2019-03-23T05:37:56.565Z,17.97
2019-03-23T05:40:24.957Z,16.70
2019-03-23T05:42:53.369Z,25.83
2019-03-23T05:45:21.784Z,20.30
2019-03-23T05:47:50.206Z,19.90
2019-03-23T05:50:18.602Z,18.33
2019-03-23T05:52:46.997Z,33.70
2019-03-23T05:55:15.420Z,25.77
2019-03-23T05:57:43.821Z,16.83
2019-03-23T06:00:14.321Z,18.20
2019-03-23T06:02:42.727Z,18.20
2019-03-23T06:05:12.066Z,18.67
2019-03-23T06:07:40.719Z,16.73
2019-03-23T06:10:09.291Z,19.10
2019-03-23T06:12:37.690Z,20.00
2019-03-23T06:15:07.646Z,19.67
2019-03-23T06:17:36.037Z,23.27
2019-03-23T06:20:08.244Z,18.87
2019-03-23T06:22:36.777Z,20.23
2019-03-23T06:25:08.895Z,19.67
2019-03-23T06:27:37.306Z,19.20
2019-03-23T06:30:08.465Z,19.90
2019-03-23T06:32:36.886Z,21.82
2019-03-23T06:35:06.728Z,18.30
2019-03-23T06:37:35.166Z,22.03
2019-03-23T06:40:05.795Z,21.47
2019-03-23T06:42:34.201Z,23.37
2019-03-23T06:45:02.622Z,22.50
2019-03-23T06:47:31.031Z,22.70
2019-03-23T06:49:59.445Z,22.20
2019-03-23T06:52:27.854Z,22.73
2019-03-23T06:54:56.266Z,18.97
2019-03-23T06:57:24.671Z,20.47
2019-03-23T06:59:53.063Z,23.60
2019-03-23T07:02:21.496Z,21.73
2019-03-23T07:04:49.888Z,24.73
2019-03-23T07:07:18.294Z,22.80
2019-03-23T07:09:46.789Z,21.53
2019-03-23T07:12:15.190Z,24.43
2019-03-23T07:14:43.606Z,23.13
2019-03-23T07:17:12.026Z,26.07
2019-03-23T07:19:40.422Z,24.40
2019-03-23T07:22:08.821Z,24.23
2019-03-23T07:24:37.590Z,22.43
2019-03-23T07:27:05.993Z,22.53
2019-03-23T07:29:34.388Z,24.13
2019-03-23T07:32:05.973Z,24.30
2019-03-23T07:34:32.930Z,22.00
2019-03-23T07:37:01.516Z,20.00
2019-03-23T07:39:30.597Z,30.10
2019-03-23T07:41:59.101Z,27.27
2019-03-23T07:44:27.510Z,23.67
2019-03-23T07:46:55.912Z,20.70
2019-03-23T07:49:24.337Z,24.43
2019-03-23T07:51:53.005Z,23.45
2019-03-23T07:54:21.404Z,25.43
2019-03-23T07:56:49.828Z,21.47
2019-03-23T07:59:18.530Z,21.97
2019-03-23T08:01:46.952Z,22.87
2019-03-23T08:04:15.367Z,24.27
2019-03-23T08:06:43.796Z,28.70
2019-03-23T08:09:20.041Z,23.70
2019-03-23T08:11:42.362Z,23.30
2019-03-23T08:14:10.766Z,24.63
2019-03-23T08:16:39.189Z,29.07
2019-03-23T08:19:07.597Z,25.80
2019-03-23T08:21:35.999Z,29.03
2019-03-23T08:24:04.426Z,28.73
2019-03-23T08:26:32.839Z,31.70
2019-03-23T08:29:03.215Z,30.60
2019-03-23T08:31:31.385Z,28.90
2019-03-23T08:33:59.805Z,34.57
2019-03-23T08:36:28.212Z,32.43
2019-03-23T08:38:56.623Z,36.63
2019-03-23T08:41:25.044Z,31.87
2019-03-23T08:43:53.449Z,41.53
2019-03-23T08:46:21.874Z,30.60
2019-03-23T08:48:50.284Z,37.63
2019-03-23T08:51:18.689Z,37.60
2019-03-23T08:53:47.105Z,37.93
2019-03-23T08:56:15.512Z,32.10
2019-03-23T08:58:42.784Z,39.80
2019-03-23T09:01:11.189Z,36.03
2019-03-23T09:03:39.585Z,36.20
2019-03-23T09:06:08.010Z,38.40
2019-03-23T09:08:36.429Z,36.90
2019-03-23T09:11:04.850Z,39.77
2019-03-23T09:13:40.566Z,37.00
2019-03-23T09:16:03.378Z,41.13
2019-03-23T09:18:31.797Z,41.43
2019-03-23T09:21:00.228Z,40.70
2019-03-23T09:23:28.629Z,43.10
2019-03-23T09:25:57.299Z,39.87
2019-03-23T09:28:25.729Z,43.70
2019-03-23T09:30:54.133Z,47.47
2019-03-23T09:33:22.535Z,49.30
2019-03-23T09:35:50.955Z,45.17
2019-03-23T09:38:19.356Z,47.13
2019-03-23T09:40:47.785Z,50.73
2019-03-23T09:43:16.261Z,46.10
2019-03-23T09:45:44.668Z,46.00
2019-03-23T09:48:13.096Z,50.33
2019-03-23T09:50:41.497Z,57.20
2019-03-23T09:53:10.266Z,52.58
2019-03-23T09:55:38.661Z,54.80
2019-03-23T09:58:07.075Z,51.93
2019-03-23T10:00:35.500Z,54.03
2019-03-23T10:03:03.959Z,39.03
2019-03-23T10:05:32.392Z,41.97
2019-03-23T10:08:00.804Z,45.12
2019-03-23T10:10:29.203Z,46.50
2019-03-23T10:12:57.645Z,46.13
2019-03-23T10:15:26.058Z,43.47
2019-03-23T10:17:54.488Z,49.17
2019-03-23T10:20:22.895Z,53.07
2019-03-23T10:22:51.292Z,52.80
2019-03-23T10:25:19.711Z,51.37
2019-03-23T10:27:48.109Z,54.33
2019-03-23T10:30:16.686Z,55.57
2019-03-23T10:32:45.089Z,56.40
2019-03-23T10:35:13.500Z,236.10
2019-03-23T10:37:41.913Z,56.87
2019-03-23T10:40:11.461Z,56.13
2019-03-23T10:42:39.928Z,48.10
2019-03-23T10:45:09.872Z,54.53
2019-03-23T10:47:38.477Z,77.57
2019-03-23T10:50:07.404Z,56.40
2019-03-23T10:52:36.169Z,56.13
2019-03-23T10:55:06.403Z,50.83
2019-03-23T10:57:34.816Z,50.93
2019-03-23T11:00:04.597Z,49.77
2019-03-23T11:02:33.011Z,48.17
2019-03-23T11:05:01.428Z,50.33
2019-03-23T11:07:29.913Z,43.67
2019-03-23T11:09:58.305Z,48.40
2019-03-23T11:12:26.709Z,42.03
2019-03-23T11:14:55.134Z,43.30
2019-03-23T11:17:23.528Z,43.57
2019-03-23T11:19:51.940Z,43.13
2019-03-23T11:22:20.611Z,40.60
2019-03-23T11:24:49.105Z,38.33
2019-03-23T11:27:17.868Z,36.20
2019-03-23T11:29:46.271Z,41.10
2019-03-23T11:32:14.686Z,38.80
2019-03-23T11:34:43.129Z,41.20
2019-03-23T11:37:11.642Z,37.87
2019-03-23T11:39:40.049Z,40.10
2019-03-23T11:42:08.453Z,89.50
2019-03-23T11:44:36.876Z,56.60
2019-03-23T11:47:05.353Z,43.43
2019-03-23T11:49:34.071Z,40.83
2019-03-23T11:52:02.492Z,37.70
2019-03-23T11:54:30.887Z,35.97
2019-03-23T11:56:59.309Z,38.37
2019-03-23T11:59:27.710Z,36.80
2019-03-23T12:01:56.138Z,37.77
2019-03-23T12:04:25.242Z,36.90
2019-03-23T12:06:53.815Z,38.00
2019-03-23T12:09:22.243Z,38.17
2019-03-23T12:11:50.648Z,40.17
2019-03-23T12:14:19.074Z,43.70
2019-03-23T12:16:47.473Z,41.33
2019-03-23T12:19:15.874Z,40.97
2019-03-23T12:21:44.299Z,43.50
2019-03-23T12:24:12.687Z,41.13
2019-03-23T12:26:41.097Z,40.20
2019-03-23T12:29:09.526Z,43.03
2019-03-23T12:31:38.535Z,43.05
2019-03-23T12:34:06.935Z,40.90
2019-03-23T12:36:35.358Z,41.13
2019-03-23T12:39:04.901Z,38.97
2019-03-23T12:41:33.306Z,38.93
2019-03-23T12:44:01.724Z,41.37
2019-03-23T12:46:30.150Z,41.53
2019-03-23T12:48:58.831Z,43.00
2019-03-23T12:51:27.226Z,40.63
2019-03-23T12:53:55.650Z,41.03
2019-03-23T12:56:24.047Z,41.87
2019-03-23T12:58:52.458Z,43.97
2019-03-23T13:01:20.889Z,40.97
2019-03-23T13:03:49.287Z,44.10
2019-03-23T13:06:17.691Z,46.40
2019-03-23T13:08:46.127Z,44.97
2019-03-23T13:11:23.092Z,45.90
2019-03-23T13:13:44.660Z,50.70
2019-03-23T13:16:13.094Z,52.63
2019-03-23T13:18:41.515Z,45.23
2019-03-23T13:21:09.922Z,47.83
2019-03-23T13:23:38.357Z,47.03
2019-03-23T13:26:06.765Z,49.80
2019-03-23T13:28:35.169Z,48.77
2019-03-23T13:31:03.610Z,52.60
2019-03-23T13:33:32.009Z,48.70
2019-03-23T13:36:00.418Z,51.97
2019-03-23T13:38:28.845Z,52.73
2019-03-23T13:40:57.242Z,50.93
2019-03-23T13:43:25.648Z,66.80
2019-03-23T13:45:54.064Z,61.27
2019-03-23T13:48:22.462Z,58.93
2019-03-23T13:50:50.885Z,60.60
2019-03-23T13:53:19.627Z,57.40
2019-03-23T13:55:48.053Z,85.00
2019-03-23T13:58:16.463Z,64.10
2019-03-23T14:00:45.022Z,77.07
2019-03-23T14:03:13.533Z,67.03
2019-03-23T14:05:41.902Z,68.60
2019-03-23T14:08:10.332Z,72.93
2019-03-23T14:10:38.801Z,74.23
2019-03-23T14:13:07.208Z,79.23
2019-03-23T14:15:35.692Z,79.97
2019-03-23T14:18:04.468Z,74.53
2019-03-23T14:20:32.872Z,75.73
2019-03-23T14:23:02.965Z,78.73
2019-03-23T14:25:31.437Z,74.50
2019-03-23T14:27:59.841Z,73.20
2019-03-23T14:30:28.268Z,75.20
2019-03-23T14:32:56.670Z,73.90
2019-03-23T14:35:25.073Z,67.13
2019-03-23T14:37:53.495Z,72.93
2019-03-23T14:40:21.904Z,79.63
2019-03-23T14:42:50.316Z,81.00
2019-03-23T14:45:18.736Z,85.10
2019-03-23T14:47:47.148Z,82.10
2019-03-23T14:50:15.650Z,78.17
2019-03-23T14:52:44.054Z,78.77
2019-03-23T14:55:12.993Z,84.40
2019-03-23T14:57:41.426Z,74.10
2019-03-23T15:00:10.469Z,72.73
2019-03-23T15:02:38.868Z,74.13
2019-03-23T15:05:07.823Z,75.93
2019-03-23T15:07:36.230Z,83.77
2019-03-23T15:10:07.670Z,79.80
2019-03-23T15:12:36.103Z,70.23
2019-03-23T15:15:06.237Z,72.60
2019-03-23T15:17:34.766Z,74.70
2019-03-23T15:20:03.942Z,73.07
2019-03-23T15:22:32.350Z,67.80
2019-03-23T15:25:01.038Z,68.00
2019-03-23T15:27:29.431Z,73.70
2019-03-23T15:29:57.940Z,72.73
2019-03-23T15:32:26.410Z,66.90
2019-03-23T15:34:54.813Z,73.00
2019-03-23T15:37:23.233Z,66.53
2019-03-23T15:39:51.630Z,74.03
2019-03-23T15:42:24.749Z,75.20
2019-03-23T15:44:50.389Z,73.43
2019-03-23T15:47:18.803Z,78.90
2019-03-23T15:49:47.229Z,72.17
2019-03-23T15:52:15.633Z,76.10
2019-03-23T15:54:44.058Z,70.23
2019-03-23T15:57:12.759Z,76.07
2019-03-23T15:59:41.166Z,73.13
2019-03-23T16:02:09.589Z,72.53
2019-03-23T16:04:37.999Z,106.60
2019-03-23T16:07:06.512Z,71.97
2019-03-23T16:09:34.922Z,78.37
2019-03-23T16:12:03.327Z,81.10
2019-03-23T16:14:31.743Z,78.87
2019-03-23T16:17:00.149Z,73.07
2019-03-23T16:19:28.588Z,72.77
2019-03-23T16:21:56.994Z,75.70
2019-03-23T16:24:25.406Z,76.80
2019-03-23T16:26:53.842Z,67.93
2019-03-23T16:29:22.252Z,73.63
2019-03-23T16:31:50.650Z,133.53
2019-03-23T16:34:19.091Z,71.83
2019-03-23T16:36:47.492Z,74.33
2019-03-23T16:39:16.217Z,74.27
2019-03-23T16:41:44.651Z,91.00
2019-03-23T16:44:13.054Z,74.07
2019-03-23T16:46:41.600Z,74.70
2019-03-23T16:49:10.010Z,77.53
2019-03-23T16:51:38.409Z,79.70
2019-03-23T16:54:06.839Z,82.83
2019-03-23T16:56:35.241Z,74.70
2019-03-23T16:59:03.663Z,82.60
2019-03-23T17:01:32.636Z,79.37
2019-03-23T17:04:01.050Z,74.33
2019-03-23T17:06:29.466Z,76.47
2019-03-23T17:08:57.869Z,77.70
2019-03-23T17:11:26.288Z,77.47
2019-03-23T17:13:54.700Z,77.87
2019-03-23T17:16:23.102Z,76.63
2019-03-23T17:18:51.528Z,77.03
2019-03-23T17:21:20.297Z,81.17
2019-03-23T17:23:48.752Z,79.83
2019-03-23T17:26:17.641Z,81.53
2019-03-23T17:28:46.044Z,83.77
2019-03-23T17:31:14.461Z,77.20
2019-03-23T17:33:42.881Z,72.83
2019-03-23T17:36:11.357Z,75.73
2019-03-23T17:38:39.765Z,73.13
2019-03-23T17:41:10.211Z,71.77
2019-03-23T17:43:40.715Z,74.27
2019-03-23T17:46:08.457Z,73.20
2019-03-23T17:48:37.152Z,73.40
2019-03-23T17:51:06.992Z,74.30
2019-03-23T17:53:35.726Z,69.55
2019-03-23T17:56:06.344Z,73.27
2019-03-23T17:58:34.273Z,70.10
2019-03-23T18:01:03.118Z,80.80
2019-03-23T18:03:31.537Z,76.87
2019-03-23T18:06:00.330Z,82.40
2019-03-23T18:08:28.734Z,74.00
2019-03-23T18:10:57.150Z,73.30
2019-03-23T18:13:25.641Z,72.73
2019-03-23T18:15:54.046Z,69.03
2019-03-23T18:18:22.470Z,72.97
2019-03-23T18:20:50.872Z,74.57
2019-03-23T18:23:19.456Z,65.20
2019-03-23T18:25:47.885Z,78.83
2019-03-23T18:28:16.330Z,68.80
2019-03-23T18:30:46.312Z,67.63
2019-03-23T18:33:14.729Z,64.87
2019-03-23T18:35:43.402Z,70.77
2019-03-23T18:38:11.820Z,71.77
2019-03-23T18:40:40.308Z,62.43
2019-03-23T18:43:09.006Z,59.73
2019-03-23T18:45:37.543Z,66.87
2019-03-23T18:48:06.003Z,63.30
2019-03-23T18:50:34.448Z,64.80
2019-03-23T18:53:02.838Z,65.70
2019-03-23T18:55:31.236Z,63.73
2019-03-23T18:57:59.655Z,69.57
2019-03-23T19:00:43.662Z,70.90
2019-03-23T19:03:12.693Z,67.33
2019-03-23T19:05:41.099Z,72.30
2019-03-23T19:08:11.809Z,69.40
2019-03-23T19:10:39.704Z,72.07
2019-03-23T19:13:08.173Z,67.10
2019-03-23T19:15:36.744Z,69.10
2019-03-23T19:18:05.966Z,66.60
2019-03-23T19:20:34.339Z,69.57
2019-03-23T19:23:02.804Z,74.90
2019-03-23T19:25:31.385Z,66.53
2019-03-23T19:27:59.785Z,68.60
2019-03-23T19:30:28.177Z,66.73
2019-03-23T19:32:56.649Z,67.30
2019-03-23T19:35:25.304Z,70.50
2019-03-23T19:37:53.716Z,64.40
2019-03-23T19:40:22.422Z,66.53
2019-03-23T19:42:50.817Z,73.47
2019-03-23T19:45:19.240Z,68.80
2019-03-23T19:47:47.660Z,70.33
2019-03-23T19:50:16.991Z,72.10
2019-03-23T19:52:45.392Z,72.27
2019-03-23T19:55:13.781Z,70.92
2019-03-23T19:57:42.272Z,73.37
2019-03-23T20:00:11.809Z,66.43
2019-03-23T20:02:40.292Z,66.03
2019-03-23T20:05:08.934Z,66.50
2019-03-23T20:07:37.317Z,68.23
2019-03-23T20:10:08.164Z,68.47
2019-03-23T20:12:36.742Z,77.40
2019-03-23T20:15:10.689Z,69.40
2019-03-23T20:17:39.093Z,70.27
2019-03-23T20:20:08.637Z,66.73
2019-03-23T20:22:37.123Z,72.00
2019-03-23T20:25:06.864Z,65.43
2019-03-23T20:27:35.257Z,69.80
2019-03-23T20:30:05.546Z,70.20
2019-03-23T20:32:33.937Z,68.47
2019-03-23T20:35:02.358Z,70.63
2019-03-23T20:37:30.757Z,66.53
2019-03-23T20:39:59.161Z,68.47
2019-03-23T20:42:27.578Z,69.63
2019-03-23T20:44:55.976Z,77.07
2019-03-23T20:47:24.467Z,71.67
2019-03-23T20:49:53.604Z,72.17
2019-03-23T20:52:22.036Z,62.53
2019-03-23T20:54:50.440Z,67.50
2019-03-23T20:57:23.847Z,65.10
2019-03-23T20:59:48.991Z,65.90
2019-03-23T21:02:17.393Z,61.43
2019-03-23T21:04:45.794Z,60.63
2019-03-23T21:07:14.210Z,61.00
2019-03-23T21:09:42.876Z,70.10
2019-03-23T21:12:11.299Z,61.83
2019-03-23T21:14:39.699Z,64.70
2019-03-23T21:17:08.132Z,59.47
2019-03-23T21:19:36.554Z,64.43
2019-03-23T21:22:05.125Z,64.10
2019-03-23T21:24:33.541Z,66.23
2019-03-23T21:27:01.960Z,64.23
2019-03-23T21:29:30.342Z,65.97
2019-03-23T21:31:58.765Z,61.90
2019-03-23T21:34:27.163Z,67.50
2019-03-23T21:36:55.850Z,49.73
2019-03-23T21:39:24.250Z,60.60
2019-03-23T21:41:52.926Z,59.07
2019-03-23T21:44:30.646Z,58.13
2019-03-23T21:46:51.471Z,60.43
2019-03-23T21:49:19.901Z,59.93
2019-03-23T21:51:48.298Z,63.03
2019-03-23T21:54:16.725Z,58.35
2019-03-23T21:56:45.133Z,53.40
2019-03-23T21:59:13.538Z,53.10
2019-03-23T22:01:42.240Z,63.37
2019-03-23T22:04:10.649Z,57.03
2019-03-23T22:06:39.038Z,58.27
2019-03-23T22:09:07.882Z,54.63
2019-03-23T22:11:36.285Z,61.97
2019-03-23T22:14:04.684Z,53.83
2019-03-23T22:16:33.108Z,55.23
2019-03-23T22:19:01.511Z,48.47
2019-03-23T22:21:29.925Z,49.43
2019-03-23T22:23:58.331Z,75.77
2019-03-23T22:26:26.752Z,71.50
2019-03-23T22:28:55.149Z,71.77
2019-03-23T22:31:23.545Z,71.87
2019-03-23T22:33:51.961Z,57.10
2019-03-23T22:36:20.360Z,56.47
2019-03-23T22:38:49.091Z,53.03
2019-03-23T22:41:17.494Z,61.47
2019-03-23T22:43:45.890Z,58.98
2019-03-23T22:46:14.310Z,53.83
2019-03-23T22:48:42.705Z,56.20
2019-03-23T22:51:11.123Z,82.10
2019-03-23T22:53:39.522Z,77.77
2019-03-23T22:56:07.946Z,62.47
2019-03-23T22:58:36.627Z,70.33
2019-03-23T23:01:05.306Z,65.20
2019-03-23T23:03:33.706Z,67.20
2019-03-23T23:06:02.202Z,67.77
2019-03-23T23:08:30.596Z,58.10
2019-03-23T23:10:59.031Z,70.90
2019-03-23T23:13:27.434Z,68.33
2019-03-23T23:15:55.838Z,64.43
2019-03-23T23:18:24.512Z,58.37
2019-03-23T23:20:52.910Z,48.90
2019-03-23T23:23:21.312Z,59.30
2019-03-23T23:25:49.723Z,58.87
2019-03-23T23:28:18.400Z,59.80
2019-03-23T23:30:46.800Z,74.73
2019-03-23T23:33:15.229Z,63.80
2019-03-23T23:35:43.615Z,56.33
2019-03-23T23:38:12.046Z,50.97
2019-03-23T23:40:40.728Z,60.67
2019-03-23T23:43:09.125Z,81.63
2019-03-23T23:45:37.564Z,84.30
2019-03-23T23:48:06.029Z,71.37
2019-03-23T23:50:34.369Z,62.90
2019-03-23T23:53:02.801Z,71.70
2019-03-23T23:55:31.197Z,63.23
2019-03-23T23:57:59.615Z,54.17
